Time;durP1;ratioP1;P1;durP2;ratioP2;P2;SDS_P1;SDS_P2;PMS_P1;PMS_P2;Temp;Humidity;BMP_temperature;BMP_pressure;BME280_temperature;BME280_humidity;BME280_pressure;Samples;Min_cycle;Max_cycle;Signal;HPM_P1;HPM_P2
2022/06/30 00:02:11;;;;;;;13.67;9.77;;;;;;;19.69;76.96;100884.53;5162339;29;20098;-80
2022/06/30 00:04:42;;;;;;;12.73;9.13;;;;;;;19.56;76.71;100883.41;5162667;29;20389;-84
2022/06/30 00:07:14;;;;;;;11.80;9.40;;;;;;;19.56;76.46;100881.63;5162375;29;20027;-79
2022/06/30 00:09:46;;;;;;;14.80;9.90;;;;;;;19.60;75.54;100887.63;5160991;29;20546;-80
2022/06/30 00:12:17;;;;;;;13.88;10.43;;;;;;;19.65;74.71;100881.16;5161898;29;20051;-83
2022/06/30 00:14:48;;;;;;;13.57;9.40;;;;;;;19.81;74.50;100881.28;5160001;29;20129;-80
2022/06/30 00:17:23;;;;;;;13.33;9.53;;;;;;;19.57;75.32;100870.09;5159383;29;20023;-82
2022/06/30 00:20:20;;;;;;;12.75;10.20;;;;;;;19.70;74.43;100865.06;5157042;29;20142;-79
2022/06/30 00:29:14;;;;;;;13.27;9.82;;;;;;;19.72;74.44;100862.34;6177683;23;20246;-79
2022/06/30 00:31:45;;;;;;;12.93;9.67;;;;;;;19.75;73.63;100856.91;5178323;28;20098;-81
2022/06/30 00:34:16;;;;;;;12.33;9.00;;;;;;;19.75;73.75;100856.91;5178309;28;20085;-80
2022/06/30 00:36:48;;;;;;;12.10;10.32;;;;;;;19.62;73.78;100854.03;5178038;28;20091;-78
2022/06/30 00:39:20;;;;;;;11.03;9.30;;;;;;;19.72;73.91;100851.78;5177650;28;20104;-80
2022/06/30 00:41:51;;;;;;;9.57;8.63;;;;;;;19.49;75.11;100859.91;5178449;28;20443;-79
2022/06/30 00:44:23;;;;;;;11.43;8.43;;;;;;;19.39;76.18;100856.00;5161021;28;20047;-81
2022/06/30 00:46:56;;;;;;;13.30;9.73;;;;;;;19.23;76.55;100855.88;5177437;28;20070;-79
2022/06/30 00:49:29;;;;;;;11.02;9.05;;;;;;;19.16;77.17;100859.75;5177837;28;20081;-82
2022/06/30 00:52:01;;;;;;;9.82;8.82;;;;;;;19.34;76.82;100862.47;5176106;28;20038;-82
2022/06/30 00:54:33;;;;;;;12.13;9.23;;;;;;;19.35;75.97;100865.00;5181344;28;20470;-81
2022/06/30 00:57:07;;;;;;;9.60;8.43;;;;;;;19.49;75.56;100866.97;5179605;28;20038;-80
2022/06/30 00:59:40;;;;;;;12.73;9.52;;;;;;;19.18;77.09;100867.63;5179754;28;20034;-79
2022/06/30 01:02:13;;;;;;;14.88;10.02;;;;;;;19.16;76.59;100870.34;5180181;28;20030;-82
2022/06/30 01:04:46;;;;;;;;;;;;;;;19.29;74.18;100866.16;5198161;28;20076;-79
2022/06/30 01:07:19;;;;;;;11.90;9.60;;;;;;;19.12;76.47;100861.66;5198097;28;20052;-79
2022/06/30 01:12:46;;;;;;;11.13;9.13;;;;;;;18.90;77.71;100853.91;5197482;28;20046;-80
2022/06/30 01:15:19;;;;;;;9.65;8.52;;;;;;;18.77;78.23;100860.63;5195685;28;20050;-79
2022/06/30 01:17:51;;;;;;;13.13;9.35;;;;;;;18.88;77.73;100865.47;5186410;23;20348;-81
2022/06/30 01:20:28;;;;;;;10.20;8.73;;;;;;;18.82;77.61;100863.06;5175853;28;20037;-79
2022/06/30 01:23:03;;;;;;;12.57;9.63;;;;;;;18.70;78.45;100868.00;5175505;28;20301;-82
2022/06/30 01:25:34;;;;;;;10.73;9.60;;;;;;;18.65;79.18;100870.00;5177175;28;20089;-81
2022/06/30 01:28:06;;;;;;;17.40;9.57;;;;;;;18.57;79.42;100866.84;5176798;28;20050;-82
2022/06/30 01:30:50;;;;;;;12.63;10.20;;;;;;;18.47;79.86;100871.69;5176119;28;20118;-81
2022/06/30 01:33:22;;;;;;;11.25;9.05;;;;;;;18.67;78.34;100875.19;5242003;23;20158;-81
2022/06/30 01:35:56;;;;;;;15.83;10.57;;;;;;;18.42;80.12;100881.59;5184064;23;20174;-82
2022/06/30 01:38:35;;;;;;;10.23;8.82;;;;;;;18.45;80.21;100877.94;5177553;28;20149;-81
2022/06/30 01:41:06;;;;;;;13.70;9.88;;;;;;;18.29;80.75;100873.34;5183288;28;20046;-81
2022/06/30 01:43:45;;;;;;;10.40;9.30;;;;;;;18.23;81.32;100877.09;5198882;28;20439;-80
2022/06/30 01:46:20;;;;;;;11.50;9.63;;;;;;;18.03;82.47;100879.72;5191420;28;20034;-83
2022/06/30 01:48:52;;;;;;;11.35;9.38;;;;;;;17.98;82.11;100874.69;5178216;28;20471;-86
2022/06/30 01:51:23;;;;;;;12.67;9.20;;;;;;;18.01;82.22;100873.66;5177136;28;20098;-82
2022/06/30 01:53:57;;;;;;;12.20;10.37;;;;;;;17.88;82.70;100870.69;5176594;28;20114;-77
2022/06/30 01:56:29;;;;;;;12.57;9.63;;;;;;;17.95;82.93;100869.53;5172271;28;20062;-84
2022/06/30 01:59:00;;;;;;;13.23;9.60;;;;;;;17.82;83.58;100870.91;5177169;28;20067;-85
2022/06/30 02:01:33;;;;;;;11.67;9.20;;;;;;;17.74;83.72;100873.88;5177660;28;20031;-81
2022/06/30 02:06:54;;;;;;;11.48;10.38;;;;;;;17.76;83.67;100877.31;5181937;28;20346;-83
2022/06/30 02:09:25;;;;;;;10.93;9.83;;;;;;;17.69;83.39;100883.75;5181244;28;20031;-80
2022/06/30 02:14:49;;;;;;;15.38;10.48;;;;;;;17.56;83.61;100883.38;5180269;28;20113;-80
2022/06/30 02:17:20;;;;;;;12.13;10.02;;;;;;;17.60;84.16;100881.50;5177159;28;20066;-79
2022/06/30 02:19:51;;;;;;;12.63;9.37;;;;;;;17.64;84.34;100891.81;5177077;28;20045;-79
2022/06/30 02:22:23;;;;;;;10.10;9.10;;;;;;;17.52;84.22;100886.19;5177089;28;20030;-85
2022/06/30 02:24:56;;;;;;;13.07;9.33;;;;;;;17.53;84.48;100882.66;5176127;28;20026;-82
2022/06/30 02:27:28;;;;;;;12.57;10.15;;;;;;;17.44;85.36;100887.38;5175726;28;20106;-81
2022/06/30 02:30:00;;;;;;;10.77;9.65;;;;;;;17.41;85.30;100895.41;5175924;28;20035;-85
2022/06/30 02:32:32;;;;;;;13.20;10.35;;;;;;;17.29;86.25;100902.03;5176232;28;20109;-81
2022/06/30 02:35:03;;;;;;;11.50;9.38;;;;;;;17.48;85.21;100903.91;5174501;28;20042;-84
2022/06/30 02:37:36;;;;;;;14.45;9.10;;;;;;;17.55;84.69;100897.50;5174522;28;20046;-81
2022/06/30 02:40:09;;;;;;;16.30;10.18;;;;;;;17.30;85.78;100889.69;5174618;28;20054;-78
2022/06/30 02:42:40;;;;;;;11.32;9.93;;;;;;;17.22;86.24;100892.63;5174393;28;20076;-80
2022/06/30 02:45:12;;;;;;;17.33;10.27;;;;;;;17.20;86.01;100888.34;5169992;28;20737;-80
2022/06/30 02:50:25;;;;;;;9.90;8.70;;;;;;;17.13;86.72;100891.22;5579087;23;20054;-79
2022/06/30 02:52:57;;;;;;;12.10;9.67;;;;;;;17.20;86.84;100889.19;5174160;28;20038;-80
2022/06/30 02:55:30;;;;;;;13.35;10.13;;;;;;;17.08;87.13;100890.53;5173734;28;20041;-81
2022/06/30 02:58:02;;;;;;;13.40;10.45;;;;;;;17.08;87.66;100887.91;5173748;28;20050;-81
2022/06/30 03:00:33;;;;;;;10.98;9.32;;;;;;;17.04;87.22;100886.28;5155523;28;20039;-80
2022/06/30 03:03:04;;;;;;;11.40;10.13;;;;;;;16.89;87.96;100886.88;5173681;28;20438;-82
2022/06/30 03:05:36;;;;;;;12.63;10.37;;;;;;;16.85;88.32;100883.50;5174231;28;20027;-79
2022/06/30 03:08:07;;;;;;;17.10;10.23;;;;;;;16.79;88.42;100886.31;5174969;28;20509;-82
2022/06/30 03:10:39;;;;;;;12.97;10.07;;;;;;;16.73;88.95;100883.94;5173948;28;20035;-86
2022/06/30 03:13:10;;;;;;;11.57;9.73;;;;;;;16.58;88.93;100875.69;5174049;28;20038;-82
2022/06/30 03:15:42;;;;;;;11.23;9.27;;;;;;;16.62;88.98;100878.19;5174012;28;20035;-79
2022/06/30 03:18:13;;;;;;;12.90;9.50;;;;;;;16.73;88.94;100876.03;5173713;28;20042;-80
2022/06/30 03:20:44;;;;;;;11.30;10.20;;;;;;;16.62;89.21;100873.78;5174503;28;20093;-81
2022/06/30 03:23:16;;;;;;;10.97;9.87;;;;;;;16.78;88.84;100879.34;5174290;28;20169;-80
2022/06/30 03:25:48;;;;;;;13.90;11.03;;;;;;;16.55;89.13;100872.28;5174555;28;20518;-80
2022/06/30 03:28:20;;;;;;;;;;;;;;;16.65;86.81;100870.19;5175854;28;20445;-80
2022/06/30 03:33:37;;;;;;;11.27;10.07;;;;;;;16.55;89.68;100874.91;5390690;23;20142;-78
2022/06/30 03:36:12;;;;;;;12.88;11.02;;;;;;;16.39;90.26;100872.00;5178603;28;20034;-80
2022/06/30 03:38:43;;;;;;;13.18;10.90;;;;;;;16.37;90.34;100874.69;5171617;28;20030;-79
2022/06/30 03:41:14;;;;;;;16.73;11.57;;;;;;;16.29;90.73;100868.81;5180133;28;20089;-79
2022/06/30 03:43:46;;;;;;;11.77;10.07;;;;;;;16.30;90.69;100873.16;5180968;28;20058;-81
2022/06/30 03:46:18;;;;;;;12.60;10.27;;;;;;;16.37;91.04;100868.53;5177893;28;20046;-80
2022/06/30 03:48:50;;;;;;;;;;;;;;;16.46;88.41;100870.84;5182662;28;20066;-79
2022/06/30 03:51:21;;;;;;;12.02;9.90;;;;;;;16.43;90.17;100872.75;5189873;28;19914;-83
2022/06/30 03:53:56;;;;;;;11.63;10.23;;;;;;;16.29;91.13;100870.59;5200608;28;20015;-86
2022/06/30 03:56:27;;;;;;;13.55;10.52;;;;;;;16.35;90.16;100860.69;5189865;28;20055;-80
2022/06/30 03:58:59;;;;;;;11.60;10.33;;;;;;;16.36;90.32;100859.81;5190330;28;20151;-78
2022/06/30 04:01:30;;;;;;;11.73;10.50;;;;;;;16.27;90.88;100852.22;5187789;28;20103;-79
2022/06/30 04:04:02;;;;;;;11.87;10.50;;;;;;;16.35;91.06;100858.06;5188980;28;20407;-79
2022/06/30 04:06:33;;;;;;;11.47;9.20;;;;;;;16.51;90.25;100854.91;5185279;28;20042;-80
2022/06/30 04:09:05;;;;;;;10.20;9.20;;;;;;;16.52;89.67;100862.75;5182017;28;20035;-81
2022/06/30 04:11:36;;;;;;;11.73;9.60;;;;;;;16.48;90.00;100849.75;5179465;28;20125;-79
2022/06/30 04:14:07;;;;;;;14.37;9.73;;;;;;;16.50;90.17;100854.06;5179781;28;20027;-79
2022/06/30 04:16:39;;;;;;;11.23;9.73;;;;;;;16.49;90.35;100854.09;5179086;28;20513;-81
2022/06/30 04:19:11;;;;;;;11.60;9.47;;;;;;;16.45;90.43;100861.22;5177520;28;20027;-80
2022/06/30 04:21:42;;;;;;;11.88;10.30;;;;;;;16.53;90.19;100863.59;5177396;28;20803;-79
2022/06/30 04:24:13;;;;;;;14.93;9.90;;;;;;;16.46;90.74;100877.91;5176795;28;20038;-78
2022/06/30 04:26:45;;;;;;;14.07;10.23;;;;;;;16.67;91.36;100876.25;5168893;28;20896;-80
2022/06/30 04:29:16;;;;;;;15.13;11.03;;;;;;;16.60;91.09;100878.25;5176610;28;20114;-80
2022/06/30 04:34:37;;;;;;;17.27;10.18;;;;;;;16.87;89.29;100884.31;5177938;28;20031;-79
2022/06/30 04:37:09;;;;;;;12.30;9.43;;;;;;;16.92;88.64;100887.63;5171264;28;20379;-79
2022/06/30 04:39:40;;;;;;;11.23;9.90;;;;;;;17.01;88.72;100939.06;5175780;28;20037;-79
2022/06/30 04:42:11;;;;;;;13.13;11.70;;;;;;;16.97;88.92;100892.72;5176066;28;20027;-80
2022/06/30 04:44:43;;;;;;;13.30;12.00;;;;;;;17.04;88.76;100898.59;5176142;28;20084;-80
2022/06/30 04:47:14;;;;;;;16.63;13.67;;;;;;;16.97;89.42;100928.72;5175796;28;20037;-81
2022/06/30 04:49:45;;;;;;;19.20;14.37;;;;;;;16.80;90.04;100917.00;5175722;28;20026;-80
2022/06/30 04:52:17;;;;;;;19.67;15.30;;;;;;;16.71;91.02;100925.22;5176086;28;20030;-80
2022/06/30 04:54:48;;;;;;;23.60;15.87;;;;;;;16.61;91.32;100935.22;5175703;28;20523;-79
2022/06/30 04:57:20;;;;;;;20.13;14.43;;;;;;;16.64;91.83;100923.75;5175362;28;20110;-81
2022/06/30 04:59:51;;;;;;;17.57;15.60;;;;;;;16.61;91.92;100952.78;5168857;28;20034;-81
2022/06/30 05:02:22;;;;;;;18.40;16.00;;;;;;;16.59;92.33;100931.78;5175174;28;20027;-81
2022/06/30 05:04:54;;;;;;;18.97;16.93;;;;;;;16.57;92.21;100928.38;5175700;28;20034;-81
2022/06/30 05:07:25;;;;;;;18.57;16.87;;;;;;;16.65;92.32;100933.38;5175810;28;20066;-81
2022/06/30 05:09:56;;;;;;;21.03;18.17;;;;;;;16.52;92.90;100927.69;5175310;28;20497;-81
2022/06/30 05:12:28;;;;;;;26.90;19.13;;;;;;;16.57;92.69;100923.09;5175495;28;20093;-81
2022/06/30 05:14:59;;;;;;;22.63;20.43;;;;;;;16.55;93.19;100930.16;5175372;28;20106;-81
2022/06/30 05:17:34;;;;;;;21.47;18.27;;;;;;;16.64;92.95;100919.31;5175239;28;20039;-81
2022/06/30 05:20:07;;;;;;;21.25;19.08;;;;;;;16.72;92.42;100912.00;5174064;28;20050;-81
2022/06/30 05:22:39;;;;;;;23.58;18.95;;;;;;;16.80;92.35;100918.78;5175456;28;20042;-81
2022/06/30 05:28:00;;;;;;;22.92;20.83;;;;;;;16.90;92.21;100925.44;5175223;28;20034;-81
2022/06/30 05:30:32;;;;;;;22.07;20.17;;;;;;;16.97;91.22;100920.81;5175251;28;20027;-81
2022/06/30 05:33:03;;;;;;;23.27;20.87;;;;;;;16.91;91.43;100921.91;5175604;28;20051;-81
2022/06/30 05:35:35;;;;;;;24.60;22.00;;;;;;;16.90;91.37;100920.19;5175600;28;20026;-80
2022/06/30 05:38:06;;;;;;;22.50;20.13;;;;;;;16.87;91.14;100928.19;5174766;28;20081;-80
2022/06/30 05:40:38;;;;;;;21.23;19.33;;;;;;;16.85;90.53;100924.72;5175417;28;20030;-80
2022/06/30 05:43:12;;;;;;;21.83;19.53;;;;;;;16.98;90.34;100933.06;5175645;28;20031;-81
2022/06/30 05:45:50;;;;;;;21.38;19.27;;;;;;;16.94;90.82;100925.28;5166815;28;20031;-81
2022/06/30 05:48:22;;;;;;;22.30;17.77;;;;;;;17.00;89.90;100928.59;5173961;28;20165;-80
2022/06/30 05:50:53;;;;;;;18.80;16.57;;;;;;;17.12;89.18;100929.00;5177098;28;20396;-82
2022/06/30 05:53:25;;;;;;;20.03;16.30;;;;;;;17.07;88.75;100938.00;5176237;28;20057;-81
2022/06/30 05:55:56;;;;;;;20.43;14.63;;;;;;;17.04;87.92;100933.69;5174170;28;20050;-81
2022/06/30 05:58:28;;;;;;;19.57;14.90;;;;;;;17.10;87.81;100935.25;5196840;28;20035;-80
2022/06/30 06:00:59;;;;;;;17.97;14.70;;;;;;;17.14;87.60;100929.78;5184697;28;20038;-80
2022/06/30 06:03:30;;;;;;;21.63;14.60;;;;;;;17.25;87.17;100936.44;5178130;28;20031;-80
2022/06/30 06:06:02;;;;;;;18.13;13.03;;;;;;;17.31;87.00;100925.66;5174843;28;20482;-81
2022/06/30 06:08:36;;;;;;;16.77;13.37;;;;;;;17.28;86.60;100924.00;5174770;28;20034;-81
2022/06/30 06:11:10;;;;;;;16.45;13.82;;;;;;;17.38;86.66;100926.28;5173282;28;20102;-81
2022/06/30 06:13:42;;;;;;;18.05;12.82;;;;;;;17.51;85.88;100935.41;5175388;28;20023;-80
2022/06/30 06:16:13;;;;;;;14.03;12.37;;;;;;;17.30;86.21;100943.22;5173336;28;20035;-81
2022/06/30 06:18:45;;;;;;;13.50;12.10;;;;;;;17.28;86.93;100946.88;5166139;28;20511;-82
2022/06/30 06:21:17;;;;;;;16.27;14.07;;;;;;;17.24;87.33;100946.13;5174898;28;20110;-81
2022/06/30 06:23:48;;;;;;;15.30;11.98;;;;;;;17.39;87.63;100947.31;5174535;28;20042;-80
2022/06/30 06:26:21;;;;;;;14.87;11.83;;;;;;;17.35;86.98;100950.13;5170943;28;20142;-80
2022/06/30 06:29:08;;;;;;;17.48;12.43;;;;;;;17.46;87.63;100946.13;5174258;28;20117;-81
2022/06/30 06:31:40;;;;;;;17.90;12.88;;;;;;;17.50;87.56;100947.75;5173730;28;20042;-80
2022/06/30 06:34:12;;;;;;;15.30;13.25;;;;;;;17.58;86.83;100959.75;5173925;28;20069;-80
2022/06/30 06:36:43;;;;;;;18.33;12.93;;;;;;;17.59;86.78;100966.75;5174016;28;20082;-79
2022/06/30 06:39:15;;;;;;;18.23;12.80;;;;;;;17.57;86.45;100958.06;5173909;28;20031;-80
2022/06/30 06:41:46;;;;;;;15.80;11.47;;;;;;;17.76;86.53;100960.81;5173966;28;20458;-79
2022/06/30 06:44:17;;;;;;;16.43;12.80;;;;;;;17.70;85.58;100961.91;5173397;28;20031;-78
2022/06/30 06:46:49;;;;;;;20.50;12.80;;;;;;;17.81;85.70;100962.34;5173700;28;20039;-80
2022/06/30 06:49:21;;;;;;;17.53;12.33;;;;;;;17.97;85.74;100964.41;5173527;28;20070;-80
2022/06/30 06:51:53;;;;;;;19.58;11.50;;;;;;;18.28;84.77;100963.13;5174137;28;20046;-79
2022/06/30 06:54:24;;;;;;;16.17;10.53;;;;;;;18.29;84.50;100971.00;5172726;28;20085;-79
2022/06/30 06:56:59;;;;;;;13.37;10.33;;;;;;;18.46;83.45;100970.25;5173143;28;20042;-80
2022/06/30 06:59:34;;;;;;;14.02;10.88;;;;;;;18.44;83.00;100973.91;5173470;28;20042;-79
2022/06/30 07:02:06;;;;;;;17.45;11.70;;;;;;;18.52;83.21;100974.44;5173757;28;20376;-78
2022/06/30 07:04:37;;;;;;;19.90;12.85;;;;;;;18.39;82.63;100979.38;5178860;28;20031;-79
2022/06/30 07:07:09;;;;;;;18.53;11.63;;;;;;;18.43;82.89;100988.00;5179706;28;21075;-79
2022/06/30 07:09:40;;;;;;;19.80;12.30;;;;;;;18.51;82.48;100985.91;5181217;28;20022;-78
2022/06/30 07:12:12;;;;;;;19.23;12.03;;;;;;;18.51;82.83;101002.59;5187910;28;20085;-79
2022/06/30 07:14:44;;;;;;;14.83;11.70;;;;;;;18.43;83.22;100999.41;5174408;28;20066;-79
2022/06/30 07:17:15;;;;;;;17.13;9.60;;;;;;;18.80;82.92;101004.91;5181709;28;20502;-80
2022/06/30 07:19:47;;;;;;;15.30;10.68;;;;;;;18.88;81.62;101008.94;5181391;28;20127;-79
2022/06/30 07:22:19;;;;;;;16.63;10.07;;;;;;;19.01;80.51;101013.69;5179106;28;20089;-80
2022/06/30 07:24:51;;;;;;;17.20;9.90;;;;;;;18.89;80.75;101023.88;5171206;28;20129;-79
2022/06/30 07:27:23;;;;;;;15.50;9.90;;;;;;;19.19;79.87;101014.66;5178402;28;20463;-79
2022/06/30 07:29:54;;;;;;;13.63;9.07;;;;;;;19.24;78.90;101004.72;5177917;28;20034;-80
2022/06/30 07:32:25;;;;;;;16.87;7.93;;;;;;;19.34;78.83;101008.69;5177901;28;20054;-81
2022/06/30 07:34:57;;;;;;;11.13;7.60;;;;;;;19.57;78.44;101006.75;5177399;28;20026;-79
2022/06/30 07:37:28;;;;;;;17.10;8.73;;;;;;;19.61;77.09;101003.03;5178039;28;20027;-82
2022/06/30 07:39:59;;;;;;;14.13;6.93;;;;;;;19.94;77.38;100995.28;5177624;28;20041;-81
2022/06/30 07:42:32;;;;;;;13.37;7.60;;;;;;;19.77;75.07;101005.84;5177907;28;20106;-80
2022/06/30 07:45:05;;;;;;;13.38;8.63;;;;;;;19.73;74.92;101005.09;5171600;28;20517;-80
2022/06/30 07:47:39;;;;;;;14.88;7.53;;;;;;;19.76;74.96;101006.78;5177754;28;20035;-80
2022/06/30 07:50:10;;;;;;;14.93;7.38;;;;;;;19.81;75.02;101012.69;5177668;28;20027;-80
2022/06/30 07:52:45;;;;;;;14.37;6.63;;;;;;;19.78;74.66;101011.03;5177511;28;20053;-81
2022/06/30 07:55:17;;;;;;;12.85;7.05;;;;;;;19.73;73.83;101006.88;5178902;28;20027;-78
2022/06/30 07:57:48;;;;;;;11.97;6.53;;;;;;;19.89;74.07;101007.91;5179012;28;20047;-80
2022/06/30 08:00:24;;;;;;;11.02;6.50;;;;;;;19.96;73.45;101014.59;5179795;28;20896;-78
2022/06/30 08:02:55;;;;;;;13.63;6.95;;;;;;;20.04;71.67;101006.28;5172539;28;20045;-80
2022/06/30 08:05:26;;;;;;;13.87;7.17;;;;;;;20.27;71.51;101006.94;5192544;28;20086;-80
2022/06/30 08:07:58;;;;;;;10.73;6.23;;;;;;;20.50;69.36;101008.44;5199507;28;20038;-80
2022/06/30 08:10:29;;;;;;;14.10;6.03;;;;;;;20.54;67.51;101002.03;5199334;28;20041;-79
2022/06/30 08:13:00;;;;;;;9.73;5.33;;;;;;;20.54;67.52;101010.00;5191529;28;20095;-81
2022/06/30 08:15:33;;;;;;;13.33;6.53;;;;;;;20.69;67.52;101009.25;5185283;28;20077;-79
2022/06/30 08:18:06;;;;;;;12.07;6.28;;;;;;;20.77;67.45;101009.69;5195585;28;20113;-79
2022/06/30 08:20:38;;;;;;;9.57;5.38;;;;;;;20.88;66.90;101009.16;5194484;28;20058;-80
2022/06/30 08:23:09;;;;;;;9.83;5.23;;;;;;;20.90;66.54;101007.25;5188379;28;20026;-80
2022/06/30 08:25:41;;;;;;;10.70;5.60;;;;;;;21.13;66.77;101008.69;5172031;28;20027;-80
2022/06/30 08:28:12;;;;;;;9.87;5.10;;;;;;;21.43;66.46;101004.44;5180871;28;20114;-80
2022/06/30 08:30:45;;;;;;;9.27;4.60;;;;;;;21.47;65.25;101013.97;5178566;28;20019;-80
2022/06/30 08:33:17;;;;;;;12.40;5.40;;;;;;;21.58;66.08;101016.91;5177469;28;20123;-80
2022/06/30 08:35:48;;;;;;;9.90;5.93;;;;;;;21.68;65.26;101020.75;5169902;28;20370;-78
2022/06/30 08:38:21;;;;;;;11.43;5.70;;;;;;;21.68;64.62;101011.94;5177427;28;20548;-80
2022/06/30 08:43:44;;;;;;;12.57;6.18;;;;;;;21.84;64.25;101012.78;5176973;28;20042;-80
2022/06/30 08:46:16;;;;;;;9.30;5.05;;;;;;;21.97;63.38;101022.72;5175878;28;20090;-80
2022/06/30 08:48:48;;;;;;;10.00;5.43;;;;;;;22.10;62.88;101022.88;5176261;28;20031;-81
2022/06/30 08:51:20;;;;;;;12.15;5.35;;;;;;;22.20;62.65;101011.66;5176383;28;20027;-81
2022/06/30 08:53:55;;;;;;;13.30;5.78;;;;;;;22.15;62.16;101012.84;5176198;28;20117;-79
2022/06/30 08:56:35;;;;;;;11.70;5.93;;;;;;;22.34;62.38;101015.31;5176013;28;20511;-79
2022/06/30 08:59:07;;;;;;;10.35;5.32;;;;;;;22.43;61.08;101022.75;5175955;28;20035;-79
2022/06/30 09:01:40;;;;;;;11.20;5.25;;;;;;;22.53;61.43;101018.59;5175460;28;20499;-80
2022/06/30 09:04:12;;;;;;;10.68;5.43;;;;;;;22.55;61.50;101022.00;5175909;28;20058;-80
2022/06/30 09:06:44;;;;;;;11.68;5.65;;;;;;;22.36;62.20;101029.34;5175598;28;20034;-79
2022/06/30 09:09:16;;;;;;;;;;;;;;;22.75;62.55;101020.81;5172191;28;20027;-80
2022/06/30 09:11:50;;;;;;;10.47;4.73;;;;;;;22.90;63.61;101019.03;5175885;28;20373;-79
2022/06/30 09:14:43;;;;;;;10.60;4.45;;;;;;;22.77;60.04;101021.59;5175458;28;20402;-80
2022/06/30 09:17:20;;;;;;;11.55;5.63;;;;;;;22.70;59.19;101024.69;5175181;28;20031;-79
2022/06/30 09:19:57;;;;;;;10.32;4.25;;;;;;;22.87;61.29;101019.22;5167674;28;20026;-80
2022/06/30 09:22:35;;;;;;;16.00;5.28;;;;;;;22.75;59.21;101020.81;5174924;28;20026;-79
2022/06/30 09:25:20;;;;;;;8.15;4.30;;;;;;;22.65;58.91;101026.78;5174998;28;20086;-80
2022/06/30 09:27:54;;;;;;;15.73;4.88;;;;;;;22.60;57.38;101026.19;5173923;28;20046;-80
2022/06/30 09:30:26;;;;;;;8.85;4.32;;;;;;;22.55;57.27;101022.00;5172465;28;20033;-80
2022/06/30 09:33:04;;;;;;;;;;;;;;;23.01;56.93;101022.84;5180440;28;20054;-80
2022/06/30 09:35:38;;;;;;;9.43;3.95;;;;;;;23.37;56.42;101029.53;5192759;28;20365;-80
2022/06/30 09:38:13;;;;;;;6.30;3.53;;;;;;;23.72;55.83;101026.44;5175205;28;20027;-81
2022/06/30 09:41:04;;;;;;;8.95;5.03;;;;;;;23.84;53.72;101033.63;5167048;28;20030;-80
2022/06/30 09:43:39;;;;;;;9.43;4.00;;;;;;;24.11;53.36;101027.47;5176004;28;20050;-80
2022/06/30 09:46:11;;;;;;;11.45;4.40;;;;;;;24.12;53.56;101031.84;5174695;28;20481;-79
2022/06/30 09:48:42;;;;;;;11.17;5.33;;;;;;;24.40;52.57;101038.84;5175145;28;20042;-80
2022/06/30 09:51:17;;;;;;;7.73;3.67;;;;;;;24.46;53.46;101026.94;5175007;28;20435;-81
2022/06/30 09:54:08;;;;;;;8.40;3.63;;;;;;;24.94;53.12;101037.91;5175219;28;21138;-80
2022/06/30 09:56:40;;;;;;;8.30;3.92;;;;;;;24.59;51.79;101035.84;5166246;28;20041;-79
2022/06/30 09:59:23;;;;;;;9.47;4.03;;;;;;;24.46;52.17;101029.59;5174585;28;20546;-81
2022/06/30 10:01:56;;;;;;;7.55;3.53;;;;;;;24.79;50.59;101038.94;5175099;28;20446;-81
2022/06/30 10:04:27;;;;;;;7.78;4.00;;;;;;;24.67;50.18;101041.50;5175198;28;20042;-80
2022/06/30 10:06:58;;;;;;;7.80;3.60;;;;;;;25.17;52.54;101036.28;5170033;28;20027;-79
2022/06/30 10:09:31;;;;;;;6.83;3.60;;;;;;;25.72;47.84;101034.16;5176432;28;20780;-79
2022/06/30 10:12:05;;;;;;;10.45;4.03;;;;;;;26.06;47.09;101036.22;5177852;28;20473;-81
2022/06/30 10:14:38;;;;;;;11.85;4.43;;;;;;;26.01;45.97;101048.06;5195684;28;20062;-79
2022/06/30 10:17:14;;;;;;;7.90;4.05;;;;;;;26.74;46.74;101048.00;5198636;28;20034;-81
2022/06/30 10:19:46;;;;;;;6.57;3.83;;;;;;;26.69;45.21;101043.00;5179213;28;20052;-80
2022/06/30 10:22:19;;;;;;;11.00;3.90;;;;;;;26.86;44.42;101030.19;5175496;28;20038;-81
2022/06/30 10:24:52;;;;;;;11.00;4.18;;;;;;;27.15;43.75;101024.38;5176050;28;20054;-82
2022/06/30 10:27:28;;;;;;;8.18;3.17;;;;;;;28.55;40.92;101013.78;5175386;28;20031;-80
2022/06/30 10:30:09;;;;;;;7.63;3.50;;;;;;;29.31;39.78;101020.72;5175056;28;20050;-81
2022/06/30 10:33:07;;;;;;;9.55;3.47;;;;;;;29.15;40.13;101028.38;5166623;28;20475;-83
2022/06/30 10:35:46;;;;;;;8.75;3.65;;;;;;;27.64;43.06;101023.13;5133233;29;20111;-81
2022/06/30 10:38:27;;;;;;;7.57;4.10;;;;;;;27.99;42.52;101022.09;5134681;29;20043;-81
2022/06/30 10:41:14;;;;;;;6.90;2.95;;;;;;;28.90;42.14;101022.47;5135876;29;20114;-81
2022/06/30 10:44:03;;;;;;;7.18;3.22;;;;;;;30.72;40.17;101024.94;5121194;29;20032;-81
2022/06/30 10:46:55;;;;;;;11.82;3.78;;;;;;;30.89;36.65;101026.84;5136437;29;20054;-81
2022/06/30 10:49:28;;;;;;;8.35;3.95;;;;;;;30.85;35.51;101022.78;5131335;29;20044;-80
2022/06/30 10:52:24;;;;;;;7.22;3.50;;;;;;;31.21;36.86;101022.94;5140849;28;20028;-80
2022/06/30 10:55:03;;;;;;;10.77;3.33;;;;;;;31.65;34.41;101013.38;5125427;29;20036;-80
2022/06/30 10:58:07;;;;;;;9.63;3.55;;;;;;;32.98;34.11;101017.88;5140504;29;20093;-81
2022/06/30 11:00:50;;;;;;;6.28;2.90;;;;;;;30.83;36.70;101014.00;5140103;29;20051;-81
2022/06/30 11:03:42;;;;;;;8.77;3.42;;;;;;;30.81;38.46;101024.06;5123848;29;20036;-80
2022/06/30 11:06:15;;;;;;;8.98;2.53;;;;;;;29.94;37.58;101027.66;5128760;29;20047;-80
2022/06/30 11:08:50;;;;;;;9.10;2.92;;;;;;;28.39;40.41;101018.75;5139230;29;20031;-82
2022/06/30 11:11:24;;;;;;;6.85;3.05;;;;;;;27.72;41.72;101017.97;5139971;28;20911;-81
2022/06/30 11:14:07;;;;;;;9.50;3.67;;;;;;;27.71;42.46;101013.63;5181313;28;20035;-81
2022/06/30 11:16:39;;;;;;;9.57;3.55;;;;;;;28.04;40.99;101013.66;5181521;28;20392;-81
2022/06/30 11:19:15;;;;;;;6.97;3.28;;;;;;;27.95;41.20;101016.13;5177432;28;20037;-81
2022/06/30 11:21:47;;;;;;;6.95;2.97;;;;;;;27.97;41.73;101008.81;5176952;28;20455;-79
2022/06/30 11:24:21;;;;;;;;;;;;;;;28.23;40.27;101005.78;5177579;28;20165;-80
2022/06/30 11:29:45;;;;;;;5.60;3.30;;;;;;;27.25;45.16;101007.44;5177575;28;20038;-80
2022/06/30 11:32:21;;;;;;;8.38;3.40;;;;;;;26.62;45.38;101004.31;5176119;28;20042;-80
2022/06/30 11:34:54;;;;;;;10.02;3.33;;;;;;;26.41;46.40;100993.47;5177224;28;20034;-80
2022/06/30 11:37:28;;;;;;;8.60;3.17;;;;;;;26.41;46.85;100993.47;5197712;28;20044;-81
2022/06/30 11:40:03;;;;;;;7.38;3.40;;;;;;;26.48;46.54;100988.50;5196947;28;20082;-81
2022/06/30 11:42:42;;;;;;;6.40;2.65;;;;;;;27.84;44.14;100994.72;5179963;28;20137;-81
2022/06/30 11:45:24;;;;;;;8.38;3.38;;;;;;;27.11;44.56;100991.63;5179980;28;20122;-80
2022/06/30 11:48:03;;;;;;;7.80;3.00;;;;;;;27.95;43.60;100991.16;5197429;28;20606;-81
2022/06/30 11:50:35;;;;;;;10.70;3.58;;;;;;;28.87;41.87;100983.34;5197409;28;20506;-79
2022/06/30 11:53:09;;;;;;;8.23;3.05;;;;;;;28.62;41.16;100981.94;5197361;28;20126;-80
2022/06/30 11:55:44;;;;;;;7.07;2.95;;;;;;;27.67;43.61;100980.03;5197388;28;20134;-79
2022/06/30 11:58:25;;;;;;;7.07;2.90;;;;;;;27.80;45.79;100975.34;5198483;28;20034;-80
2022/06/30 12:00:57;;;;;;;7.18;2.63;;;;;;;28.27;42.95;100963.47;5198258;28;20177;-79
2022/06/30 12:03:28;;;;;;;;;;;;;;;29.84;39.73;100949.72;5197511;28;20090;-81
2022/06/30 12:05:59;;;;;;;7.18;3.03;;;;;;;29.78;39.72;100948.44;5197779;28;19929;-80
2022/06/30 12:08:31;;;;;;;13.05;3.25;;;;;;;29.08;40.45;100943.03;5206880;28;20030;-79
2022/06/30 12:11:02;;;;;;;6.32;2.47;;;;;;;30.52;37.76;100929.97;5209288;23;20065;-79
2022/06/30 12:13:33;;;;;;;6.50;3.45;;;;;;;31.09;35.54;100933.44;5190841;28;20030;-79
2022/06/30 12:16:05;;;;;;;7.53;2.95;;;;;;;30.93;36.74;100930.53;5207530;28;20022;-80
2022/06/30 12:18:41;;;;;;;9.10;3.20;;;;;;;30.96;36.09;100930.28;5205312;28;20035;-80